createdAt,value
2022-10-13T00:01:43.142Z,3.93
2022-10-13T00:05:08.114Z,3.70
2022-10-13T00:08:33.604Z,3.60
2022-10-13T00:11:59.221Z,3.40
2022-10-13T00:15:25.908Z,3.10
2022-10-13T00:18:50.733Z,3.33
2022-10-13T00:22:14.326Z,3.20
2022-10-13T00:25:44.140Z,3.90
2022-10-13T00:29:07.596Z,4.40
2022-10-13T00:32:31.296Z,3.83
2022-10-13T00:35:55.038Z,4.20
2022-10-13T00:39:18.500Z,4.83
2022-10-13T00:42:43.935Z,4.50
2022-10-13T00:46:07.484Z,4.60
2022-10-13T00:49:30.931Z,4.07
2022-10-13T00:52:57.645Z,3.70
2022-10-13T00:56:24.897Z,4.43
2022-10-13T00:59:50.909Z,4.23
2022-10-13T01:03:14.396Z,3.87
2022-10-13T01:06:38.485Z,4.20
2022-10-13T01:10:06.077Z,3.73
2022-10-13T01:13:43.019Z,4.17
2022-10-13T01:17:23.371Z,3.90
2022-10-13T01:21:18.320Z,3.67
2022-10-13T01:24:50.855Z,4.27
2022-10-13T01:28:44.642Z,4.37
2022-10-13T01:32:23.541Z,3.40
2022-10-13T01:36:12.860Z,3.70
2022-10-13T01:39:43.871Z,3.67
2022-10-13T01:43:12.889Z,4.73
2022-10-13T01:46:39.873Z,4.13
2022-10-13T01:50:07.315Z,4.50
2022-10-13T01:53:34.170Z,4.03
2022-10-13T01:56:58.297Z,4.30
2022-10-13T02:00:23.880Z,4.10
2022-10-13T02:04:02.345Z,4.70
2022-10-13T02:07:34.746Z,4.13
2022-10-13T02:11:08.967Z,4.27
2022-10-13T02:14:37.230Z,4.50
2022-10-13T02:18:03.295Z,4.50
2022-10-13T02:21:27.364Z,3.77
2022-10-13T02:24:53.540Z,4.50
2022-10-13T02:28:18.275Z,4.57
2022-10-13T02:31:43.797Z,4.70
2022-10-13T02:35:08.209Z,4.70
2022-10-13T02:38:31.879Z,4.43
2022-10-13T02:41:56.601Z,4.90
2022-10-13T02:45:20.050Z,4.60
2022-10-13T02:48:45.153Z,4.90
2022-10-13T02:52:09.361Z,4.70
2022-10-13T02:55:38.543Z,4.00
2022-10-13T02:59:03.331Z,4.70
2022-10-13T03:02:28.273Z,4.13
2022-10-13T03:05:51.702Z,5.33
2022-10-13T03:09:17.860Z,4.07
2022-10-13T03:12:41.300Z,4.60
2022-10-13T03:16:07.173Z,4.03
2022-10-13T03:19:31.172Z,5.10
2022-10-13T03:22:54.604Z,4.53
2022-10-13T03:26:18.073Z,5.10
2022-10-13T03:29:41.529Z,4.90
2022-10-13T03:33:07.471Z,4.80
2022-10-13T03:36:30.904Z,4.80
2022-10-13T03:39:54.341Z,4.60
2022-10-13T03:43:17.863Z,4.60
2022-10-13T03:46:41.535Z,4.00
2022-10-13T03:50:08.439Z,4.60
2022-10-13T03:53:32.096Z,5.17
2022-10-13T03:56:55.522Z,4.30
2022-10-13T04:00:19.296Z,5.37
2022-10-13T04:03:42.722Z,4.90
2022-10-13T04:07:09.283Z,4.43
2022-10-13T04:10:32.899Z,4.30
2022-10-13T04:13:58.130Z,4.57
2022-10-13T04:17:21.530Z,4.07
2022-10-13T04:20:45.087Z,4.50
2022-10-13T04:24:13.375Z,4.83
2022-10-13T04:27:38.389Z,4.80
2022-10-13T04:31:01.859Z,4.73
2022-10-13T04:34:25.296Z,4.30
2022-10-13T04:37:48.770Z,4.70
2022-10-13T04:41:15.874Z,5.50
2022-10-13T04:44:39.573Z,5.13
2022-10-13T04:48:04.915Z,4.67
2022-10-13T04:51:28.346Z,4.70
2022-10-13T04:54:51.735Z,4.80
2022-10-13T04:58:16.478Z,4.13
2022-10-13T05:01:39.951Z,4.70
2022-10-13T05:05:06.083Z,4.27
2022-10-13T05:08:29.633Z,4.20
2022-10-13T05:11:54.782Z,3.77
2022-10-13T05:15:19.793Z,4.63
2022-10-13T05:18:43.963Z,3.87
2022-10-13T05:22:07.492Z,3.90
2022-10-13T05:25:33.829Z,4.00
2022-10-13T05:28:57.899Z,4.23
2022-10-13T05:32:23.503Z,3.30
2022-10-13T05:35:47.026Z,5.23
2022-10-13T05:39:11.570Z,4.63
2022-10-13T05:42:37.027Z,4.10
2022-10-13T05:46:00.716Z,4.60
2022-10-13T05:49:30.349Z,3.60
2022-10-13T05:52:53.940Z,4.00
2022-10-13T05:56:22.469Z,4.03
2022-10-13T05:59:52.191Z,3.77
2022-10-13T06:03:20.263Z,4.43
2022-10-13T06:06:45.304Z,4.03
2022-10-13T06:10:10.055Z,4.27
2022-10-13T06:13:33.760Z,4.57
2022-10-13T06:16:57.677Z,4.40
2022-10-13T06:20:21.563Z,3.87
2022-10-13T06:23:46.306Z,3.27
2022-10-13T06:27:09.846Z,4.03
2022-10-13T06:30:33.244Z,3.33
2022-10-13T06:33:57.073Z,4.30
2022-10-13T06:37:26.213Z,4.00
2022-10-13T06:40:52.120Z,4.40
2022-10-13T06:44:17.781Z,4.10
2022-10-13T06:47:42.278Z,3.80
2022-10-13T06:51:08.721Z,4.57
2022-10-13T06:54:32.212Z,4.67
2022-10-13T06:57:57.045Z,3.90
2022-10-13T07:01:20.660Z,3.70
2022-10-13T07:04:44.493Z,3.97
2022-10-13T07:08:07.933Z,3.90
2022-10-13T07:11:31.404Z,3.97
2022-10-13T07:14:57.293Z,3.90
2022-10-13T07:18:20.724Z,4.40
2022-10-13T07:21:44.148Z,4.10
2022-10-13T07:25:09.743Z,4.70
2022-10-13T07:28:33.435Z,4.77
2022-10-13T07:31:58.285Z,4.57
2022-10-13T07:35:24.777Z,5.20
2022-10-13T07:38:51.695Z,4.70
2022-10-13T07:42:15.213Z,3.90
2022-10-13T07:45:38.757Z,4.97
2022-10-13T07:49:03.573Z,4.60
2022-10-13T07:52:27.073Z,4.30
2022-10-13T07:55:51.159Z,4.90
2022-10-13T07:59:15.006Z,4.83
2022-10-13T08:02:42.476Z,4.73
2022-10-13T08:06:08.527Z,4.80
2022-10-13T08:09:32.118Z,5.30
2022-10-13T08:12:58.262Z,5.13
2022-10-13T08:16:22.588Z,5.20
2022-10-13T08:19:46.270Z,5.70
2022-10-13T08:23:11.110Z,5.30
2022-10-13T08:26:38.605Z,5.43
2022-10-13T08:30:02.223Z,5.20
2022-10-13T08:33:26.393Z,5.27
2022-10-13T08:36:52.793Z,4.73
2022-10-13T08:40:22.971Z,4.60
2022-10-13T08:44:33.670Z,4.63
2022-10-13T08:47:45.984Z,3.80
2022-10-13T08:51:13.381Z,3.80
2022-10-13T08:54:39.267Z,3.87
2022-10-13T08:58:13.900Z,3.97
2022-10-13T09:01:38.344Z,4.20
2022-10-13T09:05:06.071Z,3.93
2022-10-13T09:08:44.837Z,3.73
2022-10-13T09:12:11.294Z,3.53
2022-10-13T09:15:46.980Z,3.00
2022-10-13T09:19:24.571Z,3.40
2022-10-13T09:23:05.012Z,3.57
2022-10-13T09:26:28.462Z,2.50
2022-10-13T09:29:51.911Z,3.50
2022-10-13T09:33:37.672Z,2.70
2022-10-13T09:37:04.076Z,3.07
2022-10-13T09:40:30.911Z,2.83
2022-10-13T09:44:11.464Z,2.53
2022-10-13T09:47:35.284Z,2.60
2022-10-13T09:51:01.032Z,3.03
2022-10-13T09:54:38.469Z,2.93
2022-10-13T09:58:10.703Z,2.70
2022-10-13T10:01:44.350Z,2.37
2022-10-13T10:05:23.550Z,3.00
2022-10-13T10:09:03.223Z,2.57
2022-10-13T10:12:34.721Z,2.40
2022-10-13T10:16:06.814Z,2.70
2022-10-13T10:19:48.489Z,2.53
2022-10-13T10:23:22.576Z,2.73
2022-10-13T10:26:56.617Z,2.60
2022-10-13T10:30:21.997Z,2.47
2022-10-13T10:34:00.215Z,2.50
2022-10-13T10:37:46.441Z,2.47
2022-10-13T10:41:32.674Z,2.70
2022-10-13T10:44:58.878Z,2.40
2022-10-13T10:48:26.958Z,2.50
2022-10-13T10:51:51.102Z,2.63
2022-10-13T10:55:23.649Z,2.20
2022-10-13T10:59:00.133Z,2.20
2022-10-13T11:02:49.788Z,2.70
2022-10-13T11:06:36.988Z,2.00
2022-10-13T11:10:20.887Z,2.80
2022-10-13T11:13:55.064Z,2.20
2022-10-13T11:17:28.260Z,2.83
2022-10-13T11:21:00.110Z,2.50
2022-10-13T11:25:03.920Z,2.33
2022-10-13T11:28:48.209Z,2.30
2022-10-13T11:33:04.747Z,2.27
2022-10-13T11:36:56.197Z,2.43
2022-10-13T11:40:26.317Z,2.30
2022-10-13T11:44:02.091Z,2.40
2022-10-13T11:48:18.824Z,2.33
2022-10-13T11:52:08.729Z,2.50
2022-10-13T11:55:47.390Z,2.80
2022-10-13T11:59:26.096Z,2.20
2022-10-13T12:02:52.021Z,2.00
2022-10-13T12:06:34.248Z,2.20
2022-10-13T12:09:59.413Z,2.17
2022-10-13T12:13:26.922Z,2.10
2022-10-13T12:20:26.743Z,2.40
2022-10-13T12:23:52.407Z,2.13
2022-10-13T12:27:22.897Z,2.40
2022-10-13T12:30:54.154Z,2.50
2022-10-13T12:34:25.857Z,2.30
2022-10-13T12:37:50.300Z,2.40
2022-10-13T12:41:17.985Z,2.50
2022-10-13T12:44:43.685Z,2.47
2022-10-13T12:48:07.832Z,2.20
2022-10-13T12:51:31.606Z,2.13
2022-10-13T12:54:57.757Z,2.20
2022-10-13T12:58:26.261Z,2.30
2022-10-13T13:02:02.466Z,2.00
2022-10-13T13:05:40.414Z,1.80
2022-10-13T13:09:33.156Z,1.90
2022-10-13T13:13:03.337Z,2.10
2022-10-13T13:16:26.801Z,2.00
2022-10-13T13:19:54.291Z,2.00
2022-10-13T13:23:19.641Z,2.00
2022-10-13T13:26:46.984Z,2.23
2022-10-13T13:30:14.098Z,2.30
2022-10-13T13:33:38.778Z,2.07
2022-10-13T13:37:04.256Z,2.10
2022-10-13T13:40:29.436Z,2.40
2022-10-13T13:43:52.855Z,2.30
2022-10-13T13:47:22.625Z,2.30
2022-10-13T13:50:46.201Z,2.27
2022-10-13T13:54:11.027Z,2.43
2022-10-13T13:57:34.509Z,2.57
2022-10-13T14:00:59.678Z,2.87
2022-10-13T14:04:23.139Z,2.60
2022-10-13T14:07:46.712Z,2.30
2022-10-13T14:11:11.693Z,2.90
2022-10-13T14:14:35.438Z,2.50
2022-10-13T14:17:59.223Z,2.30
2022-10-13T14:21:22.616Z,3.00
2022-10-13T14:24:46.040Z,2.67
2022-10-13T14:28:14.503Z,3.37
2022-10-13T14:31:41.056Z,2.47
2022-10-13T14:35:05.961Z,2.40
2022-10-13T14:38:29.838Z,2.83
2022-10-13T14:41:53.242Z,3.03
2022-10-13T14:45:18.073Z,2.27
2022-10-13T14:48:41.442Z,2.20
2022-10-13T14:52:05.150Z,3.03
2022-10-13T14:55:28.520Z,2.60
2022-10-13T14:58:57.438Z,2.00
2022-10-13T15:02:26.911Z,2.13
2022-10-13T15:05:51.078Z,3.00
2022-10-13T15:09:14.538Z,4.40
2022-10-13T15:12:38.012Z,3.47
2022-10-13T15:16:02.396Z,3.00
2022-10-13T15:19:27.446Z,2.70
2022-10-13T15:22:50.931Z,2.33
2022-10-13T15:26:17.598Z,3.00
2022-10-13T15:29:41.241Z,2.20
2022-10-13T15:33:06.936Z,1.90
2022-10-13T15:36:31.716Z,2.50
2022-10-13T15:39:57.537Z,2.10
2022-10-13T15:43:21.373Z,2.10
2022-10-13T15:47:05.762Z,3.37
2022-10-13T15:50:29.437Z,3.27
2022-10-13T15:53:55.118Z,3.57
2022-10-13T15:57:18.714Z,3.50
2022-10-13T16:00:43.093Z,3.37
2022-10-13T16:04:06.722Z,3.10
2022-10-13T16:07:30.153Z,3.13
2022-10-13T16:10:54.917Z,3.20
2022-10-13T16:14:18.432Z,2.90
2022-10-13T16:17:41.824Z,2.80
2022-10-13T16:21:14.411Z,2.90
2022-10-13T16:24:41.167Z,2.93
2022-10-13T16:28:06.077Z,3.10
2022-10-13T16:31:29.732Z,3.10
2022-10-13T16:34:53.380Z,2.90
2022-10-13T16:38:16.942Z,3.00
2022-10-13T16:41:40.867Z,3.20
2022-10-13T16:45:08.580Z,3.40
2022-10-13T16:48:33.571Z,3.03
2022-10-13T16:51:57.060Z,3.50
2022-10-13T16:55:20.677Z,3.30
2022-10-13T16:58:45.241Z,3.57
2022-10-13T17:02:15.101Z,2.93
2022-10-13T17:05:39.411Z,3.70
2022-10-13T17:09:03.318Z,2.90
2022-10-13T17:12:26.878Z,3.30
2022-10-13T17:15:53.122Z,3.50
2022-10-13T17:19:17.936Z,3.23
2022-10-13T17:22:41.929Z,3.37
2022-10-13T17:26:09.089Z,3.30
2022-10-13T17:29:32.718Z,3.00
2022-10-13T17:32:58.647Z,3.70
2022-10-13T17:36:29.601Z,3.07
2022-10-13T17:39:53.368Z,3.63
2022-10-13T17:43:18.040Z,3.70
2022-10-13T17:46:41.506Z,3.93
2022-10-13T17:50:05.734Z,3.73
2022-10-13T17:53:30.540Z,3.87
2022-10-13T17:56:56.839Z,4.07
2022-10-13T18:00:20.744Z,4.23
2022-10-13T18:03:50.336Z,4.10
2022-10-13T18:07:14.946Z,3.80
2022-10-13T18:11:03.588Z,4.10
2022-10-13T18:14:26.191Z,4.23
2022-10-13T18:17:50.194Z,3.57
2022-10-13T18:21:16.785Z,4.13
2022-10-13T18:24:42.873Z,3.80
2022-10-13T18:28:07.964Z,3.37
2022-10-13T18:31:36.763Z,3.43
2022-10-13T18:35:00.203Z,3.47
2022-10-13T18:38:24.908Z,3.80
2022-10-13T18:41:49.843Z,4.47
2022-10-13T18:45:14.752Z,4.23
2022-10-13T18:48:38.828Z,4.37
2022-10-13T18:52:03.326Z,4.33
2022-10-13T18:55:26.915Z,3.30
2022-10-13T18:58:56.968Z,3.57
2022-10-13T19:02:24.013Z,4.30
2022-10-13T19:05:47.443Z,4.10
2022-10-13T19:09:14.586Z,3.57
2022-10-13T19:12:38.309Z,3.80
2022-10-13T19:16:02.804Z,4.40
2022-10-13T19:19:27.780Z,3.33
2022-10-13T19:22:51.220Z,3.60
2022-10-13T19:26:17.612Z,3.60
2022-10-13T19:29:41.148Z,3.70
2022-10-13T19:33:06.271Z,3.47
2022-10-13T19:36:35.103Z,4.57
2022-10-13T19:39:59.971Z,4.70
2022-10-13T19:43:25.731Z,3.23
2022-10-13T19:46:50.919Z,3.63
2022-10-13T19:50:14.556Z,4.00
2022-10-13T19:53:40.705Z,4.23
2022-10-13T19:57:04.351Z,4.37
2022-10-13T20:00:27.954Z,5.03
2022-10-13T20:03:52.682Z,4.40
2022-10-13T20:07:16.530Z,4.43
2022-10-13T20:10:44.036Z,3.60
2022-10-13T20:14:07.762Z,4.33
2022-10-13T20:17:31.298Z,3.60
2022-10-13T20:20:54.765Z,4.10
2022-10-13T20:24:18.986Z,3.77
2022-10-13T20:27:43.769Z,3.97
2022-10-13T20:31:08.595Z,3.10
2022-10-13T20:34:32.415Z,3.67
2022-10-13T20:37:56.025Z,3.33
2022-10-13T20:41:22.595Z,4.20
2022-10-13T20:44:47.381Z,3.63
2022-10-13T20:48:10.785Z,4.37
2022-10-13T20:51:34.228Z,3.67
2022-10-13T20:54:57.750Z,3.67
2022-10-13T20:58:21.923Z,3.60
2022-10-13T21:01:46.778Z,3.60
2022-10-13T21:05:10.361Z,3.43
2022-10-13T21:08:35.013Z,3.10
2022-10-13T21:11:58.498Z,3.13
2022-10-13T21:15:22.433Z,2.77
2022-10-13T21:18:49.897Z,3.20
2022-10-13T21:22:13.422Z,3.27
2022-10-13T21:25:38.211Z,2.97
2022-10-13T21:29:02.630Z,2.90
2022-10-13T21:32:26.840Z,2.50
2022-10-13T21:35:51.758Z,2.50
2022-10-13T21:39:18.664Z,2.50
2022-10-13T21:42:42.155Z,2.30
2022-10-13T21:46:13.700Z,2.73
2022-10-13T21:49:38.961Z,2.67
2022-10-13T21:53:03.886Z,2.33
2022-10-13T21:56:29.240Z,2.70
2022-10-13T21:59:52.654Z,2.70
2022-10-13T22:03:16.147Z,2.20
2022-10-13T22:06:39.725Z,2.73
2022-10-13T22:10:05.573Z,2.70
2022-10-13T22:13:29.019Z,3.00
2022-10-13T22:16:54.215Z,3.00
2022-10-13T22:20:17.903Z,2.90
2022-10-13T22:23:41.934Z,2.60
2022-10-13T22:27:06.758Z,2.47
2022-10-13T22:30:30.294Z,2.20
2022-10-13T22:33:54.488Z,2.10
2022-10-13T22:37:18.201Z,2.50
2022-10-13T22:40:41.831Z,2.50
2022-10-13T22:44:06.733Z,2.27
2022-10-13T22:47:30.420Z,2.13
2022-10-13T22:50:54.041Z,2.27
2022-10-13T22:54:17.460Z,2.77
2022-10-13T22:57:41.049Z,2.17
2022-10-13T23:01:12.531Z,2.27
2022-10-13T23:04:35.963Z,2.10
2022-10-13T23:07:59.394Z,2.17
2022-10-13T23:11:23.757Z,2.00
2022-10-13T23:14:47.190Z,2.43
2022-10-13T23:18:12.188Z,2.07
2022-10-13T23:21:35.705Z,2.10
2022-10-13T23:24:59.144Z,2.07
2022-10-13T23:28:22.601Z,2.20
2022-10-13T23:31:46.132Z,2.03
2022-10-13T23:35:11.531Z,2.40
2022-10-13T23:38:35.805Z,2.03
2022-10-13T23:41:59.611Z,1.93
2022-10-13T23:45:23.097Z,2.10
2022-10-13T23:48:47.055Z,2.20
2022-10-13T23:52:11.835Z,2.07
2022-10-13T23:55:39.586Z,2.03
2022-10-13T23:59:03.020Z,2.00
